sensor_id;sensor_type;location;lat;lon;timestamp;pressure;altitude;pressure_sealevel;temperature;humidity
62111;BME280;48102;47.526;19.072;2023-05-19T03:39:59;101080.25;;;11.29;100.00
62111;BME280;48102;47.526;19.072;2023-05-19T03:43:03;101071.37;;;11.32;100.00
62111;BME280;48102;47.526;19.072;2023-05-19T03:46:08;101065.72;;;11.41;100.00
62111;BME280;48102;47.526;19.072;2023-05-19T03:49:13;101077.53;;;11.53;100.00
62111;BME280;48102;47.526;19.072;2023-05-19T03:52:32;101070.94;;;11.63;100.00
62111;BME280;48102;47.526;19.072;2023-05-19T03:55:38;101074.00;;;11.74;100.00
62111;BME280;48102;47.526;19.072;2023-05-19T03:58:41;101079.44;;;11.92;100.00
62111;BME280;48102;47.526;19.072;2023-05-19T04:01:46;101080.00;;;12.19;100.00
62111;BME280;48102;47.526;19.072;2023-05-19T04:04:49;101083.06;;;12.28;100.00
62111;BME280;48102;47.526;19.072;2023-05-19T04:07:53;101081.41;;;12.26;100.00
62111;BME280;48102;47.526;19.072;2023-05-19T04:10:57;101074.41;;;12.25;100.00
62111;BME280;48102;47.526;19.072;2023-05-19T04:14:00;101082.66;;;12.38;100.00
62111;BME280;48102;47.526;19.072;2023-05-19T04:17:06;101076.16;;;12.45;100.00
62111;BME280;48102;47.526;19.072;2023-05-19T04:20:10;101081.75;;;12.58;100.00
62111;BME280;48102;47.526;19.072;2023-05-19T04:23:13;101081.41;;;12.65;100.00
62111;BME280;48102;47.526;19.072;2023-05-19T04:26:17;101084.81;;;12.67;100.00
62111;BME280;48102;47.526;19.072;2023-05-19T04:29:21;101097.38;;;12.81;100.00
62111;BME280;48102;47.526;19.072;2023-05-19T04:32:25;101101.75;;;12.82;100.00
62111;BME280;48102;47.526;19.072;2023-05-19T04:35:28;101100.41;;;12.92;100.00
62111;BME280;48102;47.526;19.072;2023-05-19T04:38:35;101093.84;;;13.18;100.00
62111;BME280;48102;47.526;19.072;2023-05-19T04:41:39;101101.16;;;13.32;100.00
62111;BME280;48102;47.526;19.072;2023-05-19T04:44:42;101106.59;;;13.29;100.00
62111;BME280;48102;47.526;19.072;2023-05-19T04:47:46;101107.41;;;13.48;100.00
62111;BME280;48102;47.526;19.072;2023-05-19T04:50:49;101109.13;;;13.49;100.00
62111;BME280;48102;47.526;19.072;2023-05-19T04:53:54;101113.31;;;13.53;100.00
62111;BME280;48102;47.526;19.072;2023-05-19T04:56:57;101121.63;;;13.82;100.00
62111;BME280;48102;47.526;19.072;2023-05-19T05:00:01;101116.13;;;14.02;100.00
62111;BME280;48102;47.526;19.072;2023-05-19T05:03:06;101110.09;;;14.34;100.00
62111;BME280;48102;47.526;19.072;2023-05-19T05:06:09;101112.34;;;14.74;100.00
62111;BME280;48102;47.526;19.072;2023-05-19T05:09:14;101106.44;;;15.01;100.00
62111;BME280;48102;47.526;19.072;2023-05-19T05:12:17;101119.47;;;14.90;100.00
62111;BME280;48102;47.526;19.072;2023-05-19T05:15:21;101114.91;;;14.92;100.00
62111;BME280;48102;47.526;19.072;2023-05-19T05:18:26;101116.00;;;15.19;100.00
62111;BME280;48102;47.526;19.072;2023-05-19T05:21:29;101123.09;;;15.50;100.00
62111;BME280;48102;47.526;19.072;2023-05-19T05:24:34;101126.13;;;15.74;100.00
62111;BME280;48102;47.526;19.072;2023-05-19T05:27:38;101128.19;;;15.85;100.00
62111;BME280;48102;47.526;19.072;2023-05-19T05:30:42;101141.78;;;16.09;100.00
62111;BME280;48102;47.526;19.072;2023-05-19T05:33:48;101139.19;;;16.38;100.00
62111;BME280;48102;47.526;19.072;2023-05-19T05:36:52;101136.22;;;16.71;100.00
62111;BME280;48102;47.526;19.072;2023-05-19T05:39:56;101131.31;;;16.93;100.00
62111;BME280;48102;47.526;19.072;2023-05-19T05:42:59;101126.16;;;17.32;100.00
62111;BME280;48102;47.526;19.072;2023-05-19T05:46:03;101135.88;;;17.18;100.00
62111;BME280;48102;47.526;19.072;2023-05-19T05:49:06;101132.59;;;17.15;100.00
62111;BME280;48102;47.526;19.072;2023-05-19T05:52:10;101131.44;;;17.04;100.00
62111;BME280;48102;47.526;19.072;2023-05-19T05:55:15;101129.97;;;17.27;100.00
62111;BME280;48102;47.526;19.072;2023-05-19T05:58:19;101132.69;;;17.40;100.00
62111;BME280;48102;47.526;19.072;2023-05-19T06:01:22;101132.44;;;17.58;100.00
62111;BME280;48102;47.526;19.072;2023-05-19T06:04:27;101141.13;;;17.47;100.00
62111;BME280;48102;47.526;19.072;2023-05-19T06:07:29;101138.03;;;16.99;100.00
62111;BME280;48102;47.526;19.072;2023-05-19T06:10:33;101130.75;;;16.74;100.00
62111;BME280;48102;47.526;19.072;2023-05-19T06:13:39;101137.38;;;16.52;100.00
62111;BME280;48102;47.526;19.072;2023-05-19T06:16:45;101144.22;;;16.42;100.00
62111;BME280;48102;47.526;19.072;2023-05-19T06:19:49;101147.84;;;16.55;100.00
62111;BME280;48102;47.526;19.072;2023-05-19T06:22:53;101142.16;;;16.76;100.00
62111;BME280;48102;47.526;19.072;2023-05-19T06:26:01;101146.19;;;17.10;100.00
62111;BME280;48102;47.526;19.072;2023-05-19T06:29:04;101151.47;;;17.51;100.00
62111;BME280;48102;47.526;19.072;2023-05-19T06:32:07;101152.59;;;17.89;100.00
62111;BME280;48102;47.526;19.072;2023-05-19T06:35:10;101152.91;;;17.70;100.00
62111;BME280;48102;47.526;19.072;2023-05-19T06:38:13;101160.47;;;16.95;100.00
62111;BME280;48102;47.526;19.072;2023-05-19T06:41:16;101167.41;;;16.54;100.00
62111;BME280;48102;47.526;19.072;2023-05-19T06:44:21;101167.94;;;16.75;100.00
62111;BME280;48102;47.526;19.072;2023-05-19T06:47:24;101169.81;;;17.02;100.00
62111;BME280;48102;47.526;19.072;2023-05-19T06:50:27;101174.62;;;17.10;100.00
62111;BME280;48102;47.526;19.072;2023-05-19T06:53:32;101175.38;;;17.12;100.00
62111;BME280;48102;47.526;19.072;2023-05-19T06:56:37;101182.81;;;17.48;100.00
62111;BME280;48102;47.526;19.072;2023-05-19T06:59:41;101176.13;;;17.82;100.00
62111;BME280;48102;47.526;19.072;2023-05-19T07:02:45;101185.56;;;17.73;100.00
62111;BME280;48102;47.526;19.072;2023-05-19T07:05:49;101177.97;;;17.94;100.00
62111;BME280;48102;47.526;19.072;2023-05-19T07:08:52;101182.09;;;18.38;100.00
62111;BME280;48102;47.526;19.072;2023-05-19T07:11:55;101174.72;;;18.67;100.00
62111;BME280;48102;47.526;19.072;2023-05-19T07:14:58;101169.41;;;18.80;100.00
62111;BME280;48102;47.526;19.072;2023-05-19T07:18:02;101174.25;;;19.12;100.00
62111;BME280;48102;47.526;19.072;2023-05-19T07:21:04;101171.06;;;19.43;100.00
62111;BME280;48102;47.526;19.072;2023-05-19T07:24:09;101176.56;;;18.79;100.00
62111;BME280;48102;47.526;19.072;2023-05-19T07:27:12;101173.06;;;18.79;100.00
62111;BME280;48102;47.526;19.072;2023-05-19T07:30:15;101173.78;;;19.30;100.00
62111;BME280;48102;47.526;19.072;2023-05-19T07:33:17;101159.66;;;19.65;97.08
62111;BME280;48102;47.526;19.072;2023-05-19T07:36:20;101162.06;;;19.92;91.73
62111;BME280;48102;47.526;19.072;2023-05-19T07:39:23;101161.72;;;19.97;92.35
62111;BME280;48102;47.526;19.072;2023-05-19T07:42:29;101153.88;;;20.29;92.90
62111;BME280;48102;47.526;19.072;2023-05-19T07:45:32;101152.00;;;20.53;95.00
62111;BME280;48102;47.526;19.072;2023-05-19T07:48:35;101157.47;;;21.08;94.39
62111;BME280;48102;47.526;19.072;2023-05-19T07:51:38;101159.16;;;21.09;92.86
62111;BME280;48102;47.526;19.072;2023-05-19T07:54:41;101150.78;;;20.91;87.77
62111;BME280;48102;47.526;19.072;2023-05-19T07:57:44;101147.34;;;21.00;92.98
62111;BME280;48102;47.526;19.072;2023-05-19T08:00:47;101149.75;;;21.26;97.20
62111;BME280;48102;47.526;19.072;2023-05-19T08:03:50;101152.81;;;21.21;94.50
62111;BME280;48102;47.526;19.072;2023-05-19T08:06:53;101151.34;;;21.72;94.81
62111;BME280;48102;47.526;19.072;2023-05-19T08:09:57;101139.59;;;22.26;86.16
62111;BME280;48102;47.526;19.072;2023-05-19T08:12:59;101144.81;;;22.27;86.14
62111;BME280;48102;47.526;19.072;2023-05-19T08:16:02;101142.91;;;21.76;80.32
62111;BME280;48102;47.526;19.072;2023-05-19T08:19:06;101134.19;;;22.05;87.69
62111;BME280;48102;47.526;19.072;2023-05-19T08:22:10;101140.00;;;22.21;85.45
62111;BME280;48102;47.526;19.072;2023-05-19T08:25:12;101136.75;;;21.86;89.12
62111;BME280;48102;47.526;19.072;2023-05-19T08:28:15;101133.22;;;22.27;89.13
62111;BME280;48102;47.526;19.072;2023-05-19T08:31:18;101129.41;;;22.20;83.98
62111;BME280;48102;47.526;19.072;2023-05-19T08:34:21;101145.28;;;21.59;84.97
62111;BME280;48102;47.526;19.072;2023-05-19T08:37:24;101141.72;;;21.26;89.37
62111;BME280;48102;47.526;19.072;2023-05-19T08:40:27;101131.47;;;21.20;91.35
62111;BME280;48102;47.526;19.072;2023-05-19T08:43:33;101133.53;;;21.27;91.65
62111;BME280;48102;47.526;19.072;2023-05-19T08:46:36;101129.72;;;21.41;88.94
62111;BME280;48102;47.526;19.072;2023-05-19T08:49:45;101122.41;;;21.75;82.26
62111;BME280;48102;47.526;19.072;2023-05-19T08:53:00;101134.44;;;22.44;83.60
62111;BME280;48102;47.526;19.072;2023-05-19T08:56:17;101129.09;;;23.24;74.63
62111;BME280;48102;47.526;19.072;2023-05-19T08:59:21;101127.00;;;23.47;72.17
62111;BME280;48102;47.526;19.072;2023-05-19T09:02:24;101130.38;;;23.30;72.54
62111;BME280;48102;47.526;19.072;2023-05-19T09:05:28;101128.91;;;22.66;73.89
62111;BME280;48102;47.526;19.072;2023-05-19T09:08:32;101130.22;;;21.99;82.28
62111;BME280;48102;47.526;19.072;2023-05-19T09:11:35;101132.84;;;21.58;82.05
62111;BME280;48102;47.526;19.072;2023-05-19T09:14:39;101125.25;;;21.63;83.87
62111;BME280;48102;47.526;19.072;2023-05-19T09:17:42;101135.03;;;22.17;86.33
62111;BME280;48102;47.526;19.072;2023-05-19T09:20:46;101123.84;;;22.42;81.96
62111;BME280;48102;47.526;19.072;2023-05-19T09:23:49;101123.66;;;23.05;71.36
62111;BME280;48102;47.526;19.072;2023-05-19T09:26:52;101123.22;;;22.90;70.53
62111;BME280;48102;47.526;19.072;2023-05-19T09:30:06;101122.56;;;22.67;74.62
62111;BME280;48102;47.526;19.072;2023-05-19T09:33:09;101132.50;;;22.46;73.02
62111;BME280;48102;47.526;19.072;2023-05-19T09:36:13;101127.75;;;22.59;76.95
62111;BME280;48102;47.526;19.072;2023-05-19T09:39:17;101132.56;;;22.65;74.63
62111;BME280;48102;47.526;19.072;2023-05-19T09:42:24;101119.91;;;22.77;70.77
62111;BME280;48102;47.526;19.072;2023-05-19T09:45:28;101121.16;;;22.73;71.53
62111;BME280;48102;47.526;19.072;2023-05-19T09:48:32;101120.28;;;22.93;74.11
62111;BME280;48102;47.526;19.072;2023-05-19T09:51:36;101121.56;;;23.09;71.83
62111;BME280;48102;47.526;19.072;2023-05-19T09:54:39;101124.03;;;23.41;70.69
62111;BME280;48102;47.526;19.072;2023-05-19T09:57:43;101112.97;;;23.24;68.27
62111;BME280;48102;47.526;19.072;2023-05-19T10:00:47;101110.94;;;22.97;72.08
62111;BME280;48102;47.526;19.072;2023-05-19T10:03:51;101099.03;;;22.60;69.71
62111;BME280;48102;47.526;19.072;2023-05-19T10:06:56;101102.47;;;22.41;71.67
62111;BME280;48102;47.526;19.072;2023-05-19T10:10:01;101102.75;;;22.28;74.29
62111;BME280;48102;47.526;19.072;2023-05-19T10:13:04;101088.37;;;22.48;72.68
62111;BME280;48102;47.526;19.072;2023-05-19T10:16:08;101084.81;;;22.78;75.12
62111;BME280;48102;47.526;19.072;2023-05-19T10:19:12;101082.97;;;22.79;72.67
62111;BME280;48102;47.526;19.072;2023-05-19T10:22:15;101078.88;;;22.75;74.57
62111;BME280;48102;47.526;19.072;2023-05-19T10:25:18;101082.50;;;22.54;70.12
62111;BME280;48102;47.526;19.072;2023-05-19T10:28:21;101080.47;;;22.87;76.08
62111;BME280;48102;47.526;19.072;2023-05-19T10:31:30;101075.59;;;23.02;70.99
62111;BME280;48102;47.526;19.072;2023-05-19T10:38:26;101069.25;;;22.72;70.07
62111;BME280;48102;47.526;19.072;2023-05-19T10:41:44;101072.31;;;22.98;67.91
62111;BME280;48102;47.526;19.072;2023-05-19T10:48:15;101077.59;;;23.77;64.13
62111;BME280;48102;47.526;19.072;2023-05-19T10:51:18;101077.72;;;23.57;63.28
62111;BME280;48102;47.526;19.072;2023-05-19T10:54:41;101075.38;;;24.20;64.29
62111;BME280;48102;47.526;19.072;2023-05-19T10:57:54;101066.88;;;24.62;57.18
62111;BME280;48102;47.526;19.072;2023-05-19T11:01:00;101061.13;;;25.20;55.48
62111;BME280;48102;47.526;19.072;2023-05-19T11:04:07;101065.50;;;25.57;54.08
62111;BME280;48102;47.526;19.072;2023-05-19T11:07:17;101057.28;;;26.10;55.16
62111;BME280;48102;47.526;19.072;2023-05-19T11:10:22;101048.19;;;26.11;51.71
62111;BME280;48102;47.526;19.072;2023-05-19T11:13:26;101049.25;;;25.48;54.11
62111;BME280;48102;47.526;19.072;2023-05-19T11:16:33;101048.47;;;25.20;56.81
62111;BME280;48102;47.526;19.072;2023-05-19T11:19:36;101041.22;;;25.21;54.75
62111;BME280;48102;47.526;19.072;2023-05-19T11:22:39;101036.91;;;25.46;51.47
62111;BME280;48102;47.526;19.072;2023-05-19T11:25:50;101038.72;;;25.81;53.87
62111;BME280;48102;47.526;19.072;2023-05-19T11:28:55;101049.44;;;26.25;52.03
62111;BME280;48102;47.526;19.072;2023-05-19T11:31:59;101038.41;;;26.87;48.83
62111;BME280;48102;47.526;19.072;2023-05-19T11:35:05;101033.75;;;27.30;48.48
62111;BME280;48102;47.526;19.072;2023-05-19T11:38:10;101039.81;;;27.23;46.43
62111;BME280;48102;47.526;19.072;2023-05-19T11:41:14;101030.88;;;27.56;46.90
62111;BME280;48102;47.526;19.072;2023-05-19T11:44:19;101035.66;;;28.25;46.46
62111;BME280;48102;47.526;19.072;2023-05-19T11:47:22;101035.94;;;27.59;48.00
62111;BME280;48102;47.526;19.072;2023-05-19T11:50:25;101029.41;;;26.78;49.69
62111;BME280;48102;47.526;19.072;2023-05-19T11:53:28;101031.88;;;26.21;51.09
62111;BME280;48102;47.526;19.072;2023-05-19T11:56:40;101026.34;;;25.52;49.63
62111;BME280;48102;47.526;19.072;2023-05-19T11:59:43;101030.50;;;26.17;50.34
62111;BME280;48102;47.526;19.072;2023-05-19T12:02:47;101043.94;;;29.11;45.21
62111;BME280;48102;47.526;19.072;2023-05-19T12:05:50;101032.72;;;30.27;40.46
62111;BME280;48102;47.526;19.072;2023-05-19T12:08:54;101026.19;;;29.98;41.91
62111;BME280;48102;47.526;19.072;2023-05-19T12:11:57;101026.13;;;30.21;42.07
62111;BME280;48102;47.526;19.072;2023-05-19T12:15:02;101020.47;;;32.92;38.91
62111;BME280;48102;47.526;19.072;2023-05-19T12:18:05;101013.94;;;35.65;31.41
62111;BME280;48102;47.526;19.072;2023-05-19T12:21:09;101008.84;;;36.49;32.46
62111;BME280;48102;47.526;19.072;2023-05-19T12:24:12;101008.06;;;38.03;28.41
62111;BME280;48102;47.526;19.072;2023-05-19T12:27:21;100994.00;;;39.81;27.69
62111;BME280;48102;47.526;19.072;2023-05-19T12:30:28;100990.44;;;42.12;24.59
62111;BME280;48102;47.526;19.072;2023-05-19T12:33:32;100992.31;;;43.00;22.11
62111;BME280;48102;47.526;19.072;2023-05-19T12:36:37;100974.12;;;38.26;27.71
62111;BME280;48102;47.526;19.072;2023-05-19T12:39:41;100972.53;;;40.05;29.57
62111;BME280;48102;47.526;19.072;2023-05-19T12:42:45;100967.03;;;42.50;25.35
62111;BME280;48102;47.526;19.072;2023-05-19T12:45:49;100968.00;;;44.13;23.06
62111;BME280;48102;47.526;19.072;2023-05-19T12:48:57;100975.44;;;45.11;21.51
62111;BME280;48102;47.526;19.072;2023-05-19T12:52:02;100952.28;;;43.77;22.46
62111;BME280;48102;47.526;19.072;2023-05-19T12:55:12;100947.12;;;44.30;21.21
62111;BME280;48102;47.526;19.072;2023-05-19T12:58:17;100941.56;;;44.30;21.63
62111;BME280;48102;47.526;19.072;2023-05-19T13:01:21;100944.47;;;45.23;21.52
62111;BME280;48102;47.526;19.072;2023-05-19T13:04:25;100939.13;;;46.03;20.08
62111;BME280;48102;47.526;19.072;2023-05-19T13:07:28;100944.28;;;47.51;20.17
62111;BME280;48102;47.526;19.072;2023-05-19T13:10:32;100933.88;;;46.91;19.86
62111;BME280;48102;47.526;19.072;2023-05-19T13:13:36;100927.47;;;44.95;21.15
62111;BME280;48102;47.526;19.072;2023-05-19T13:16:42;100931.97;;;44.47;20.94
62111;BME280;48102;47.526;19.072;2023-05-19T13:19:45;100920.19;;;43.46;22.66
62111;BME280;48102;47.526;19.072;2023-05-19T13:22:48;100915.94;;;45.07;21.06
62111;BME280;48102;47.526;19.072;2023-05-19T13:25:51;100909.00;;;44.36;21.77
62111;BME280;48102;47.526;19.072;2023-05-19T13:28:54;100911.59;;;46.16;20.27
62111;BME280;48102;47.526;19.072;2023-05-19T13:31:57;100907.72;;;46.36;19.55
62111;BME280;48102;47.526;19.072;2023-05-19T13:35:03;100911.00;;;48.18;18.89
62111;BME280;48102;47.526;19.072;2023-05-19T13:38:07;100906.72;;;49.33;17.52
62111;BME280;48102;47.526;19.072;2023-05-19T13:41:13;100893.28;;;49.53;17.50
62111;BME280;48102;47.526;19.072;2023-05-19T13:44:17;100890.06;;;47.80;17.46
62111;BME280;48102;47.526;19.072;2023-05-19T13:47:21;100883.97;;;49.35;17.34
62111;BME280;48102;47.526;19.072;2023-05-19T13:50:25;100888.28;;;50.07;16.77
62111;BME280;48102;47.526;19.072;2023-05-19T13:53:27;100891.00;;;49.55;16.72
62111;BME280;48102;47.526;19.072;2023-05-19T13:56:32;100883.91;;;48.86;17.34
62111;BME280;48102;47.526;19.072;2023-05-19T13:59:35;100873.16;;;48.57;17.89
62111;BME280;48102;47.526;19.072;2023-05-19T14:02:54;100875.34;;;49.22;17.40
62111;BME280;48102;47.526;19.072;2023-05-19T14:05:58;100873.31;;;50.20;16.87
62111;BME280;48102;47.526;19.072;2023-05-19T14:09:01;100875.78;;;52.42;13.92
62111;BME280;48102;47.526;19.072;2023-05-19T14:12:04;100875.97;;;52.37;14.63
62111;BME280;48102;47.526;19.072;2023-05-19T14:15:08;100863.41;;;50.14;15.76
62111;BME280;48102;47.526;19.072;2023-05-19T14:18:13;100858.50;;;48.52;17.03
62111;BME280;48102;47.526;19.072;2023-05-19T14:21:16;100855.03;;;47.96;18.02
62111;BME280;48102;47.526;19.072;2023-05-19T14:24:19;100851.13;;;49.66;16.58
62111;BME280;48102;47.526;19.072;2023-05-19T14:27:22;100848.59;;;47.59;16.84
62111;BME280;48102;47.526;19.072;2023-05-19T14:30:25;100837.03;;;43.15;20.08
62111;BME280;48102;47.526;19.072;2023-05-19T14:33:28;100824.09;;;39.24;24.62
62111;BME280;48102;47.526;19.072;2023-05-19T14:36:37;100824.97;;;38.57;25.00
62111;BME280;48102;47.526;19.072;2023-05-19T14:39:39;100829.56;;;42.24;21.11
62111;BME280;48102;47.526;19.072;2023-05-19T14:42:42;100842.28;;;45.71;18.43
62111;BME280;48102;47.526;19.072;2023-05-19T14:45:45;100842.94;;;48.23;16.40
62111;BME280;48102;47.526;19.072;2023-05-19T14:48:48;100846.19;;;48.84;15.57
62111;BME280;48102;47.526;19.072;2023-05-19T14:51:51;100840.75;;;49.58;15.67
62111;BME280;48102;47.526;19.072;2023-05-19T14:54:54;100844.09;;;50.30;14.82
62111;BME280;48102;47.526;19.072;2023-05-19T14:57:58;100841.38;;;51.24;14.95
62111;BME280;48102;47.526;19.072;2023-05-19T15:01:01;100835.94;;;49.50;15.81
62111;BME280;48102;47.526;19.072;2023-05-19T15:04:05;100826.03;;;47.69;17.18
62111;BME280;48102;47.526;19.072;2023-05-19T15:07:08;100826.38;;;48.49;15.60
62111;BME280;48102;47.526;19.072;2023-05-19T15:10:12;100824.59;;;47.72;16.95
62111;BME280;48102;47.526;19.072;2023-05-19T15:13:15;100818.84;;;46.34;18.24
62111;BME280;48102;47.526;19.072;2023-05-19T15:16:20;100815.69;;;48.06;16.72
62111;BME280;48102;47.526;19.072;2023-05-19T15:19:23;100817.13;;;48.93;15.84
62111;BME280;48102;47.526;19.072;2023-05-19T15:22:26;100810.88;;;49.45;14.81
62111;BME280;48102;47.526;19.072;2023-05-19T15:25:29;100807.34;;;49.88;15.90
62111;BME280;48102;47.526;19.072;2023-05-19T15:28:32;100797.50;;;45.25;18.06
62111;BME280;48102;47.526;19.072;2023-05-19T15:31:35;100795.59;;;41.60;22.30
62111;BME280;48102;47.526;19.072;2023-05-19T19:40:56;100903.50;;;15.94;100.00
